Blue Star 1 — SWET — position and weather

sailwx.info

Track history (hours):
 
Tides and Currents Weather Stations Pressure Air Temp Water Temp Dewpoint Dewpoint Depression Visibility Wind Speed Wind Dir Waves Ship Positions

Blue Star 1

Last reported at 2017-Mar-26 18:33 UTC. Time now 2017-Mar-26 18:47 UTC.
Position N 37°37' E 023°55'.

Length 176 m; draft 6.5 m.

Type: Passenger vessel. MMSI: 239710000.

Date/timePositionNaut miles runAvg speedWind from/ knotsBaromVisibWave heightAir tempDewpointWater temp
2017-Mar-26 18:33N 37°37' E 023°55'1817.8
2017-Mar-26 17:33N 37°49' E 023°38'8 7.6
2017-Mar-26 16:33N 37°56' E 023°38'0 0.0
2017-Mar-26 15:32N 37°56' E 023°38'0 0.0
2017-Mar-26 14:29N 37°56' E 023°38'0 0.0
2017-Mar-26 13:29N 37°56' E 023°38'0 0.0
2017-Mar-26 12:32N 37°56' E 023°38'0 0.0
2017-Mar-26 11:32N 37°56' E 023°38'0 0.0
2017-Mar-26 10:31N 37°56' E 023°38'0 0.0
2017-Mar-26 09:31N 37°56' E 023°38'0 0.0
2017-Mar-26 08:31N 37°56' E 023°38'0 0.0
2017-Mar-26 07:31N 37°56' E 023°38'0 0.0
2017-Mar-26 06:31N 37°56' E 023°38'0 0.0
2017-Mar-26 05:31N 37°56' E 023°38'0 0.0
2017-Mar-26 04:31N 37°56' E 023°38'0 0.0
2017-Mar-26 03:33N 37°56' E 023°38'1514.6
2017-Mar-26 02:33N 37°43' E 023°45'5121.9
2017-Mar-26 00:14N 37°23' E 024°44'1921.6
2017-Mar-25 23:22N 37°19' E 025°07'1822.1
2017-Mar-25 22:33N 37°17' E 025°29'19 0.8
2017-Mar-24 23:23N 37°18' E 025°53'1822.1
2017-Mar-24 22:33N 37°19' E 025°31'2221.8
2017-Mar-24 21:33N 37°24' E 025°04'1311.6
2017-Mar-24 20:24N 37°32' E 024°50'4524.3
2017-Mar-24 18:33N 37°36' E 023°54'2322.5
2017-Mar-24 17:34N 37°54' E 023°37'2 2.1
2017-Mar-24 16:33N 37°56' E 023°37'0 0.0
2017-Mar-24 15:33N 37°56' E 023°37'0 0.0
2017-Mar-24 14:32N 37°56' E 023°37'0 0.0
2017-Mar-24 13:32N 37°56' E 023°37'0 0.0
2017-Mar-24 12:32N 37°56' E 023°37'0 0.0
2017-Mar-24 11:32N 37°56' E 023°37'0 0.0
2017-Mar-24 10:32N 37°56' E 023°37'0 0.0
2017-Mar-24 09:33N 37°56' E 023°37'2019.8
2017-Mar-24 08:33N 37°39' E 023°50'5125.4
2017-Mar-24 06:34N 37°22' E 024°50'2625.6
2017-Mar-24 05:34N 37°19' E 025°22'22 1.2
2017-Mar-23 11:34N 37°11' E 025°48'2524.8
2017-Mar-23 10:34N 37°15' E 025°17'2524.7
2017-Mar-23 09:34N 37°21' E 024°47'5524.4
2017-Mar-23 07:19N 37°40' E 023°43'1722.2
2017-Mar-23 06:34N 37°56' E 023°37'0 0.1
2017-Mar-23 05:34N 37°56' E 023°37'0 0.0
2017-Mar-23 04:33N 37°56' E 023°37'0 0.0
2017-Mar-23 03:34N 37°56' E 023°37'1716.5
2017-Mar-23 02:33N 37°41' E 023°46'2323.0
2017-Mar-23 01:33N 37°43' E 024°15'2725.6
2017-Mar-23 00:31N 38°00' E 024°42'4 0.1
2017-Mar-21 22:05N 38°02' E 024°46'1119.8
2017-Mar-21 21:33N 37°56' E 024°35'2019.6
2017-Mar-21 20:31N 37°43' E 024°15'1818.2
2017-Mar-21 19:32N 37°37' E 023°54'1717.8
2017-Mar-21 18:34N 37°49' E 023°38'7 0.5
2017-Mar-21 05:04N 37°56' E 023°38'714.1
2017-Mar-21 04:34N 37°50' E 023°41'44 1.4
2017-Mar-19 21:33N 37°56' E 024°36'3818.6
2017-Mar-19 19:31N 37°37' E 023°54'1718.1
2017-Mar-19 18:33N 37°49' E 023°38'8 7.4
2017-Mar-19 17:31N 37°56' E 023°38'0 0.0
2017-Mar-19 04:34N 37°56' E 023°38'1716.8
2017-Mar-19 03:33N 37°41' E 023°46'2019.4
2017-Mar-19 02:31N 37°33' E 024°10'2619.3
2017-Mar-19 01:11N 37°25' E 024°40'1219.4
2017-Mar-19 00:34N 37°20' E 024°55'2019.5
2017-Mar-18 23:34N 37°18' E 025°19'2119.6
2017-Mar-18 22:30N 37°15' E 025°45'7 0.3
2017-Mar-17 23:31N 37°18' E 025°53'2121.9
2017-Mar-17 22:34N 37°19' E 025°27'3215.4
2017-Mar-17 20:28N 37°32' E 024°50'5424.0
2017-Mar-17 18:14N 37°40' E 023°43'1724.4
2017-Mar-17 17:33N 37°56' E 023°37'1 0.9
2017-Mar-17 16:33N 37°56' E 023°37'0 0.0
2017-Mar-17 15:34N 37°56' E 023°37'0 0.0
2017-Mar-17 14:34N 37°56' E 023°37'0 0.0
2017-Mar-17 13:33N 37°56' E 023°37'0 0.0
2017-Mar-17 12:33N 37°56' E 023°37'0 0.0
2017-Mar-17 11:33N 37°56' E 023°37'0 0.0
2017-Mar-17 10:33N 37°56' E 023°37'0 0.0
2017-Mar-17 09:34N 37°56' E 023°37'4 4.3
2017-Mar-17 08:33N 37°52' E 023°39'5924.5
2017-Mar-17 06:10N 37°24' E 024°44'1825.3
2017-Mar-17 05:27N 37°20' E 025°06'3226.0
2017-Mar-17 04:14N 37°18' E 025°46'  
Track history (hours):
 
Tides and Currents Weather Stations Pressure Air Temp Water Temp Dewpoint Dewpoint Depression Visibility Wind Speed Wind Dir Waves Ship Positions

Blue Star 1

Last reported at 2017-Mar-26 18:33 UTC. Time now 2017-Mar-26 18:47 UTC.
Position N 37°37' E 023°55'.

Length 176 m; draft 6.5 m.

Type: Passenger vessel. MMSI: 239710000.

Date/timePositionNaut miles runAvg speedWind from/ knotsBaromVisibWave heightAir tempDewpointWater temp
2017-Mar-26 18:33N 37°37' E 023°55'1817.8
2017-Mar-26 17:33N 37°49' E 023°38'8 7.6
2017-Mar-26 16:33N 37°56' E 023°38'0 0.0
2017-Mar-26 15:32N 37°56' E 023°38'0 0.0
2017-Mar-26 14:29N 37°56' E 023°38'0 0.0
2017-Mar-26 13:29N 37°56' E 023°38'0 0.0
2017-Mar-26 12:32N 37°56' E 023°38'0 0.0
2017-Mar-26 11:32N 37°56' E 023°38'0 0.0
2017-Mar-26 10:31N 37°56' E 023°38'0 0.0
2017-Mar-26 09:31N 37°56' E 023°38'0 0.0
2017-Mar-26 08:31N 37°56' E 023°38'0 0.0
2017-Mar-26 07:31N 37°56' E 023°38'0 0.0
2017-Mar-26 06:31N 37°56' E 023°38'0 0.0
2017-Mar-26 05:31N 37°56' E 023°38'0 0.0
2017-Mar-26 04:31N 37°56' E 023°38'0 0.0
2017-Mar-26 03:33N 37°56' E 023°38'1514.6
2017-Mar-26 02:33N 37°43' E 023°45'5121.9
2017-Mar-26 00:14N 37°23' E 024°44'1921.6
2017-Mar-25 23:22N 37°19' E 025°07'1822.1
2017-Mar-25 22:33N 37°17' E 025°29'19 0.8
2017-Mar-24 23:23N 37°18' E 025°53'1822.1
2017-Mar-24 22:33N 37°19' E 025°31'2221.8
2017-Mar-24 21:33N 37°24' E 025°04'1311.6
2017-Mar-24 20:24N 37°32' E 024°50'4524.3
2017-Mar-24 18:33N 37°36' E 023°54'2322.5
2017-Mar-24 17:34N 37°54' E 023°37'2 2.1
2017-Mar-24 16:33N 37°56' E 023°37'0 0.0
2017-Mar-24 15:33N 37°56' E 023°37'0 0.0
2017-Mar-24 14:32N 37°56' E 023°37'0 0.0
2017-Mar-24 13:32N 37°56' E 023°37'0 0.0
2017-Mar-24 12:32N 37°56' E 023°37'0 0.0
2017-Mar-24 11:32N 37°56' E 023°37'0 0.0
2017-Mar-24 10:32N 37°56' E 023°37'0 0.0
2017-Mar-24 09:33N 37°56' E 023°37'2019.8
2017-Mar-24 08:33N 37°39' E 023°50'5125.4
2017-Mar-24 06:34N 37°22' E 024°50'2625.6
2017-Mar-24 05:34N 37°19' E 025°22'22 1.2
2017-Mar-23 11:34N 37°11' E 025°48'2524.8
2017-Mar-23 10:34N 37°15' E 025°17'2524.7
2017-Mar-23 09:34N 37°21' E 024°47'5524.4
2017-Mar-23 07:19N 37°40' E 023°43'1722.2
2017-Mar-23 06:34N 37°56' E 023°37'0 0.1
2017-Mar-23 05:34N 37°56' E 023°37'0 0.0
2017-Mar-23 04:33N 37°56' E 023°37'0 0.0
2017-Mar-23 03:34N 37°56' E 023°37'1716.5
2017-Mar-23 02:33N 37°41' E 023°46'2323.0
2017-Mar-23 01:33N 37°43' E 024°15'2725.6
2017-Mar-23 00:31N 38°00' E 024°42'4 0.1
2017-Mar-21 22:05N 38°02' E 024°46'1119.8
2017-Mar-21 21:33N 37°56' E 024°35'2019.6
2017-Mar-21 20:31N 37°43' E 024°15'1818.2
2017-Mar-21 19:32N 37°37' E 023°54'1717.8
2017-Mar-21 18:34N 37°49' E 023°38'7 0.5
2017-Mar-21 05:04N 37°56' E 023°38'714.1
2017-Mar-21 04:34N 37°50' E 023°41'44 1.4
2017-Mar-19 21:33N 37°56' E 024°36'3818.6
2017-Mar-19 19:31N 37°37' E 023°54'1718.1
2017-Mar-19 18:33N 37°49' E 023°38'8 7.4
2017-Mar-19 17:31N 37°56' E 023°38'0 0.0
2017-Mar-19 04:34N 37°56' E 023°38'1716.8
2017-Mar-19 03:33N 37°41' E 023°46'2019.4
2017-Mar-19 02:31N 37°33' E 024°10'2619.3
2017-Mar-19 01:11N 37°25' E 024°40'1219.4
2017-Mar-19 00:34N 37°20' E 024°55'2019.5
2017-Mar-18 23:34N 37°18' E 025°19'2119.6
2017-Mar-18 22:30N 37°15' E 025°45'7 0.3
2017-Mar-17 23:31N 37°18' E 025°53'2121.9
2017-Mar-17 22:34N 37°19' E 025°27'3215.4
2017-Mar-17 20:28N 37°32' E 024°50'5424.0
2017-Mar-17 18:14N 37°40' E 023°43'1724.4
2017-Mar-17 17:33N 37°56' E 023°37'1 0.9
2017-Mar-17 16:33N 37°56' E 023°37'0 0.0
2017-Mar-17 15:34N 37°56' E 023°37'0 0.0
2017-Mar-17 14:34N 37°56' E 023°37'0 0.0
2017-Mar-17 13:33N 37°56' E 023°37'0 0.0
2017-Mar-17 12:33N 37°56' E 023°37'0 0.0
2017-Mar-17 11:33N 37°56' E 023°37'0 0.0
2017-Mar-17 10:33N 37°56' E 023°37'0 0.0
2017-Mar-17 09:34N 37°56' E 023°37'4 4.3
2017-Mar-17 08:33N 37°52' E 023°39'5924.5
2017-Mar-17 06:10N 37°24' E 024°44'1825.3
2017-Mar-17 05:27N 37°20' E 025°06'3226.0
2017-Mar-17 04:14N 37°18' E 025°46'  

Dump ship's entire track history